BusineSS To — FAA7602 — position and weather

sailwx.info

Track history (hours):
 
Tides and Currents Weather Stations Pressure Air Temp Water Temp Dewpoint Dewpoint Depression Visibility Wind Speed Wind Dir Waves Ship Positions

BusineSS To

Last reported at 2018-Mar-25 13:09 UTC. Time now 2018-Jun-22 20:34 UTC.
Position N 14°28' W 060°52'.
Warning: this ship's position is months out of date.

Length 14 m.

Type: Pleasure craft. MMSI: 227154040.

Date/timePositionNaut miles runAvg speedWind from/ knotsBaromVisibWave heightAir tempDewpointWater temp
2018-Mar-25 13:09N 14°28' W 060°52'0 0.0
2018-Mar-25 13:00N 14°28' W 060°52'0 0.0
2018-Mar-25 12:30N 14°28' W 060°52'0 0.0
2018-Mar-25 12:00N 14°28' W 060°52'0 0.0
2018-Mar-25 11:30N 14°28' W 060°52'0 0.0
2018-Mar-25 11:00N 14°28' W 060°52'0 0.0
2018-Mar-25 10:30N 14°28' W 060°52'0 0.0
2018-Mar-25 10:00N 14°28' W 060°52'0 0.0
2018-Mar-25 09:30N 14°28' W 060°52'0 0.0
2018-Mar-25 09:00N 14°28' W 060°52'0 0.0
2018-Mar-25 08:30N 14°28' W 060°52'0 0.0
2018-Mar-25 08:00N 14°28' W 060°52'0 0.0
2018-Mar-25 07:30N 14°28' W 060°52'0 0.0
2018-Mar-25 07:00N 14°28' W 060°52'0 0.0
2018-Mar-25 06:30N 14°28' W 060°52'0 0.0
2018-Mar-25 06:00N 14°28' W 060°52'0 0.0
2018-Mar-25 05:30N 14°28' W 060°52'0 0.0
2018-Mar-25 05:00N 14°28' W 060°52'0 0.0
2018-Mar-25 04:30N 14°28' W 060°52'0 0.0
2018-Mar-25 04:00N 14°28' W 060°52'0 0.0
2018-Mar-25 03:30N 14°28' W 060°52'0 0.0
2018-Mar-25 03:00N 14°28' W 060°52'0 0.0
2018-Mar-25 02:30N 14°28' W 060°52'0 0.0
2018-Mar-25 02:00N 14°28' W 060°52'0 0.0
2018-Mar-25 01:30N 14°28' W 060°52'0 0.0
2018-Mar-25 01:00N 14°28' W 060°52'0 0.0
2018-Mar-25 00:30N 14°28' W 060°52'0 0.0
2018-Mar-25 00:00N 14°28' W 060°52'0 0.0
2018-Mar-24 23:15N 14°28' W 060°52'0 0.0
2018-Mar-24 22:54N 14°28' W 060°52'0 0.0
2018-Mar-24 21:36N 14°28' W 060°52'0 0.1
2018-Mar-24 21:30N 14°28' W 060°52'  
2018-Mar-20 22:23N 14°28' W 060°52'0 0.0
2018-Mar-20 21:59N 14°28' W 060°52'0 0.0
2018-Mar-20 21:29N 14°28' W 060°52'0 0.0
2018-Mar-20 20:59N 14°28' W 060°52'0 0.0
2018-Mar-20 20:29N 14°28' W 060°52'0 0.0
2018-Mar-20 19:59N 14°28' W 060°52'0 0.0
2018-Mar-20 19:29N 14°28' W 060°52'0 0.2
2018-Mar-20 18:58N 14°28' W 060°52'0 0.0
2018-Mar-20 18:30N 14°28' W 060°52'2 4.4
2018-Mar-20 18:00N 14°26' W 060°53'0 0.0
2018-Mar-19 22:22N 14°26' W 060°53'1 1.9
2018-Mar-19 22:00N 14°26' W 060°54'4 7.0
2018-Mar-19 21:28N 14°26' W 060°58'3 6.7
2018-Mar-19 21:00N 14°27' W 061°01'  
Track history (hours):
 
Tides and Currents Weather Stations Pressure Air Temp Water Temp Dewpoint Dewpoint Depression Visibility Wind Speed Wind Dir Waves Ship Positions

BusineSS To

Last reported at 2018-Mar-25 13:09 UTC. Time now 2018-Jun-22 20:34 UTC.
Position N 14°28' W 060°52'.
Warning: this ship's position is months out of date.

Length 14 m.

Type: Pleasure craft. MMSI: 227154040.

Date/timePositionNaut miles runAvg speedWind from/ knotsBaromVisibWave heightAir tempDewpointWater temp
2018-Mar-25 13:09N 14°28' W 060°52'0 0.0
2018-Mar-25 13:00N 14°28' W 060°52'0 0.0
2018-Mar-25 12:30N 14°28' W 060°52'0 0.0
2018-Mar-25 12:00N 14°28' W 060°52'0 0.0
2018-Mar-25 11:30N 14°28' W 060°52'0 0.0
2018-Mar-25 11:00N 14°28' W 060°52'0 0.0
2018-Mar-25 10:30N 14°28' W 060°52'0 0.0
2018-Mar-25 10:00N 14°28' W 060°52'0 0.0
2018-Mar-25 09:30N 14°28' W 060°52'0 0.0
2018-Mar-25 09:00N 14°28' W 060°52'0 0.0
2018-Mar-25 08:30N 14°28' W 060°52'0 0.0
2018-Mar-25 08:00N 14°28' W 060°52'0 0.0
2018-Mar-25 07:30N 14°28' W 060°52'0 0.0
2018-Mar-25 07:00N 14°28' W 060°52'0 0.0
2018-Mar-25 06:30N 14°28' W 060°52'0 0.0
2018-Mar-25 06:00N 14°28' W 060°52'0 0.0
2018-Mar-25 05:30N 14°28' W 060°52'0 0.0
2018-Mar-25 05:00N 14°28' W 060°52'0 0.0
2018-Mar-25 04:30N 14°28' W 060°52'0 0.0
2018-Mar-25 04:00N 14°28' W 060°52'0 0.0
2018-Mar-25 03:30N 14°28' W 060°52'0 0.0
2018-Mar-25 03:00N 14°28' W 060°52'0 0.0
2018-Mar-25 02:30N 14°28' W 060°52'0 0.0
2018-Mar-25 02:00N 14°28' W 060°52'0 0.0
2018-Mar-25 01:30N 14°28' W 060°52'0 0.0
2018-Mar-25 01:00N 14°28' W 060°52'0 0.0
2018-Mar-25 00:30N 14°28' W 060°52'0 0.0
2018-Mar-25 00:00N 14°28' W 060°52'0 0.0
2018-Mar-24 23:15N 14°28' W 060°52'0 0.0
2018-Mar-24 22:54N 14°28' W 060°52'0 0.0
2018-Mar-24 21:36N 14°28' W 060°52'0 0.1
2018-Mar-24 21:30N 14°28' W 060°52'  
2018-Mar-20 22:23N 14°28' W 060°52'0 0.0
2018-Mar-20 21:59N 14°28' W 060°52'0 0.0
2018-Mar-20 21:29N 14°28' W 060°52'0 0.0
2018-Mar-20 20:59N 14°28' W 060°52'0 0.0
2018-Mar-20 20:29N 14°28' W 060°52'0 0.0
2018-Mar-20 19:59N 14°28' W 060°52'0 0.0
2018-Mar-20 19:29N 14°28' W 060°52'0 0.2
2018-Mar-20 18:58N 14°28' W 060°52'0 0.0
2018-Mar-20 18:30N 14°28' W 060°52'2 4.4
2018-Mar-20 18:00N 14°26' W 060°53'0 0.0
2018-Mar-19 22:22N 14°26' W 060°53'1 1.9
2018-Mar-19 22:00N 14°26' W 060°54'4 7.0
2018-Mar-19 21:28N 14°26' W 060°58'3 6.7
2018-Mar-19 21:00N 14°27' W 061°01'  

Dump ship's entire track history